Terminal Aerodrome Forecast
Issued by NWS Denver/Boulder, CO

Home | Current Version | Previous Version | Text Only | Print | Product List | Glossary On
Versions: 1 2 3 4 5 6 7 8 9 10 11 12 13 14 15 16 17 18 19 20 21 22 23 24 25 26 27 28 29 30 31 32 33 34 35 36
000
FTUS45 KBOU 262024 AAA
TAFDEN
TAF AMD
KDEN 262024Z 2620/2724 07008KT P6SM SCT050 SCT070 SCT220
     FM262200 05008KT P6SM VCTS SCT060CB SCT120
     FM270200 15011KT P6SM SCT120 SCT220
      TEMPO 2703/2706 15012G24KT
     FM270700 22014KT P6SM FEW220
     FM271400 25005KT P6SM VCFG FEW003 SCT080
      TEMPO 2714/2716 1SM BR BKN003
     FM271800 VRB05KT P6SM SCT080 BKN180=

USA.gov is the U.S. government's official web portal to all federal, state and local government web resources and services.